Latest Coastal Weather Observations for Friendly Beaches

IDT60701

Issued at 4:45 am EST Wednesday 30 July 2014 (issued every 10 minutes, with the page automatically refreshed every 10 minutes)

About coastal observations | Map of coastal stations | Coastal observations for TAS | Marine services | Other Formats
Station Details ID: 092114 Name: FRIENDLY BEACHES Lat: -42.00 Lon: 148.28 Height: 55.0 m
Data from the previous 72 hours. | See also: Recent months at Friendly Beaches
Date/Time
EST
Temp

°C
Wind Pressure Rain
since 9am
mm
Weather Cloud Vis
km
Sea
Height
m
Swell
Dir
 
Speed
knots
Gust
knots
hPa Trend Height
m
Period
s
Dir
30/04:30am 11.4 WNW 13 26 997.2 - 4.4 - - - - - - -
30/04:00am 11.4 WNW 13 24 996.6 - 4.4 - - - - - - -
30/03:30am 11.6 WNW 14 28 995.7 - 4.4 - - - - - - -
30/03:00am 11.3 WNW 11 22 995.4 - 4.4 - - - - - - -
30/02:30am 11.3 WNW 13 21 994.9 - 4.4 - - - - - - -
30/02:00am 11.3 WNW 12 24 994.2 - 4.4 - - - - - - -
30/01:30am 11.4 WNW 15 30 993.9 - 4.4 - - - - - - -
30/01:00am 11.4 WNW 15 30 993.3 - 4.4 - - - - - - -
30/12:30am 11.5 NW 12 19 992.9 - 4.4 - - - - - - -
30/12:00am 11.8 WNW 13 24 992.8 - 4.4 - - - - - - -
 
Date/Time
EST
Temp

°C
Wind Pressure Rain
since 9am
mm
Weather Cloud Vis
km
Sea
Height
m
Swell
Dir
 
Speed
knots
Gust
knots
hPa Trend Height
m
Period
s
Dir
29/11:30pm 11.9 WNW 15 31 992.7 - 4.4 - - - - - - -
29/11:00pm 12.1 WNW 12 21 992.5 - 4.4 - - - - - - -
29/10:30pm 12.5 WNW 16 32 991.9 - 4.4 - - - - - - -
29/10:00pm 12.2 WNW 15 27 992.1 - 4.4 - - - - - - -
29/09:30pm 12.1 WNW 16 31 991.3 - 4.4 - - - - - - -
29/09:00pm 12.1 WNW 16 28 990.7 - 4.4 - - - - - - -
29/08:30pm 12.5 WNW 16 32 990.2 - 4.4 - - - - - - -
29/08:00pm 11.4 WNW 15 25 990.4 - 4.4 - - - - - - -
29/07:30pm 12.0 WNW 20 31 989.6 - 4.0 - - - - - - -
29/07:00pm 14.5 WNW 21 37 987.9 - 3.6 - - - - - - -
29/06:30pm 13.4 WNW 19 37 987.8 - 3.6 - - - - - - -
29/06:00pm 14.4 WNW 19 36 987.6 - 3.4 Recent precip. - - - - - -
29/05:30pm 12.9 NW 14 30 987.8 - 3.4 - - - - - - -
29/05:00pm 12.0 NW 16 27 988.0 - 3.0 - - - - - - -
29/04:30pm 14.8 NW 16 30 987.8 - 1.8 - - - - - - -
29/04:00pm 14.4 NW 19 39 988.3 - 1.8 - - - - - - -
29/03:30pm 14.4 WNW 17 31 989.1 - 1.8 - - - - - - -
29/03:00pm 14.4 WNW 19 37 989.4 - 1.8 - - - - - - -
29/02:30pm 14.6 NW 19 37 989.7 - 1.8 - - - - - - -
29/02:00pm 13.8 NW 16 28 990.2 - 1.8 - - - - - - -
29/01:30pm 12.3 WNW 14 32 991.4 - 1.8 - - - - - - -
29/01:00pm 13.6 WNW 19 35 991.8 - 1.8 - - - - - - -
29/12:30pm 14.8 WNW 15 28 991.2 - 1.8 - - - - - - -
29/12:00pm 14.2 WNW 17 30 991.2 - 1.8 - - - - - - -
29/11:30am 14.2 WNW 21 40 991.2 - 1.8 - - - - - - -
29/11:00am 15.1 WNW 19 38 991.3 - 1.8 - - - - - - -
29/10:30am 13.9 WNW 13 28 991.7 - 1.8 - - - - - - -
29/10:00am 12.3 NW 8 15 992.8 - 1.8 - - - - - - -
29/09:30am 11.5 WNW 6 10 993.5 - 1.2 - - - - - - -
29/09:00am 11.1 NNW 10 18 994.3 - 2.6 Rain - - - - - -
29/08:30am 12.8 NW 11 22 994.6 - 0.0 - - - - - - -
29/08:00am 12.6 NNW 9 15 994.2 - 0.0 - - - - - - -
29/07:30am 12.6 NNW 7 16 995.1 - 0.0 - - - - - - -
29/07:00am 12.3 N 5 11 995.2 - 0.0 - - - - - - -
29/06:30am 12.8 NW 8 18 994.9 - 0.0 - - - - - - -
29/06:00am 13.4 N 8 15 996.1 - 0.0 - - - - - - -
29/05:30am 14.0 NW 9 20 995.8 - 0.0 - - - - - - -
29/05:00am 14.1 NNW 12 25 996.2 - 0.0 - - - - - - -
29/04:30am 13.7 NNW 10 21 996.7 - 0.0 - - - - - - -
29/04:00am 13.7 NW 15 28 997.3 - 0.0 - - - - - - -
29/03:30am 13.2 NW 12 21 997.8 - 0.0 - - - - - - -
29/03:00am 13.1 WNW 13 31 998.6 - 0.0 - - - - - - -
29/02:30am 12.9 NNW 9 18 999.3 - 0.0 - - - - - - -
29/02:00am 12.5 N 6 15 1000.6 - 0.0 - - - - - - -
29/01:30am 12.1 NNW 5 12 1000.3 - 0.0 - - - - - - -
29/01:00am 12.7 NW 6 14 1000.7 - 0.0 - - - - - - -
29/12:30am 12.9 NNW 9 15 1001.0 - 0.0 - - - - - - -
29/12:00am 12.5 N 7 15 1001.5 - 0.0 - - - - - - -
 
Date/Time
EST
Temp

°C
Wind Pressure Rain
since 9am
mm
Weather Cloud Vis
km
Sea
Height
m
Swell
Dir
 
Speed
knots
Gust
knots
hPa Trend Height
m
Period
s
Dir
28/11:30pm 12.4 NNW 6 12 1001.6 - 0.0 - - - - - - -
28/11:00pm 12.8 WNW 15 28 1001.7 - 0.0 - - - - - - -
28/10:30pm 12.4 WNW 13 24 1001.6 - 0.0 - - - - - - -
28/10:00pm 11.6 NW 11 19 1002.1 - 0.0 - - - - - - -
28/09:30pm 11.5 NNW 5 13 1003.4 - 0.0 - - - - - - -
28/09:00pm 11.7 N 3 7 1003.2 - 0.0 - - - - - - -
28/08:30pm 12.8 NNW 7 12 1002.9 - 0.0 - - - - - - -
28/08:00pm 13.5 NW 8 18 1003.3 - 0.0 - - - - - - -
28/07:30pm 13.0 NW 9 22 1003.1 - 0.0 - - - - - - -
28/07:00pm 10.7 N 3 6 1003.2 - 0.0 - - - - - - -
28/06:30pm 12.0 S 3 5 1003.4 - 0.0 - - - - - - -
28/06:00pm 13.1 NW 7 15 1003.1 - 0.0 - - - - - - -
28/05:30pm 13.4 NW 10 18 1002.5 - 0.0 - - - - - - -
28/05:00pm 13.5 WNW 7 14 1002.7 - 0.0 - - - - - - -
28/04:30pm 14.4 WNW 12 26 1003.0 - 0.0 - - - - - - -
28/04:00pm 14.6 WNW 9 19 1003.4 - 0.0 - - - - - - -
28/03:30pm 15.0 WNW 12 21 1003.4 - 0.0 - - - - - - -
28/03:00pm 15.5 WNW 11 20 1003.8 - 0.0 - - - - - - -
28/02:30pm 15.3 WNW 12 22 1003.9 - 0.0 - - - - - - -
28/02:00pm 15.5 WNW 11 23 1003.8 - 0.0 - - - - - - -
28/01:30pm 15.3 WNW 11 23 1004.2 - 0.0 - - - - - - -
28/01:00pm 15.4 WNW 10 19 1004.6 - 0.0 - - - - - - -
28/12:30pm 15.7 WNW 18 32 1005.0 - 0.0 - - - - - - -
28/12:00pm 15.9 WNW 16 31 1005.5 - 0.0 - - - - - - -
28/11:30am 16.2 WNW 9 19 1005.6 - 0.0 - - - - - - -
28/11:00am 15.7 NW 9 24 1006.5 - 0.0 - - - - - - -
28/10:30am 14.9 NW 9 18 1007.1 - 0.0 - - - - - - -
28/10:00am 14.3 NNW 11 24 1007.0 - 0.0 - - - - - - -
28/09:30am 14.4 NW 5 17 1007.2 - 0.0 - - - - - - -
28/09:00am 13.1 N 4 9 1007.5 - 0.2 - - - - - - -
28/08:30am 13.3 NW 4 12 1007.6 - 0.2 - - - - - - -
28/08:00am 12.8 N 1 3 1007.8 - 0.2 - - - - - - -
28/07:30am 12.7 NW 3 5 1007.9 - 0.2 - - - - - - -
28/07:00am 13.4 NNW 5 10 1008.2 - 0.2 - - - - - - -
28/06:30am 12.9 NNW 4 7 1008.2 - 0.2 - - - - - - -
28/06:00am 12.9 NNW 4 8 1008.1 - 0.2 - - - - - - -
28/05:30am 12.1 N 6 11 1008.0 - 0.2 - - - - - - -
28/05:00am 11.0 N 4 6 1008.6 - 0.2 - - - - - - -
28/04:30am 10.7 N 2 4 1008.7 - 0.2 - - - - - - -
28/04:00am 11.5 N 7 11 1009.4 - 0.2 - - - - - - -
28/03:30am 11.6 N 10 14 1009.4 - 0.2 - - - - - - -
28/03:00am 12.4 NNW 7 11 1009.9 - 0.2 - - - - - - -
28/02:30am 12.4 NNW 7 13 1010.0 - 0.2 - - - - - - -
28/02:00am 12.4 NNW 8 13 1010.6 - 0.2 - - - - - - -
28/01:30am 12.6 NW 6 10 1010.8 - 0.2 - - - - - - -
28/01:00am 12.5 NW 5 9 1010.9 - 0.2 - - - - - - -
28/12:30am 12.2 NNW 4 9 1011.0 - 0.2 - - - - - - -
28/12:00am 12.9 WNW 6 15 1011.7 - 0.2 - - - - - - -
 
Date/Time
EST
Temp

°C
Wind Pressure Rain
since 9am
mm
Weather Cloud Vis
km
Sea
Height
m
Swell
Dir
 
Speed
knots
Gust
knots
hPa Trend Height
m
Period
s
Dir
27/11:30pm 12.9 NW 7 15 1012.0 - 0.2 - - - - - - -
27/11:00pm 12.4 NW 5 9 1012.2 - 0.2 - - - - - - -
27/10:30pm 12.3 NNW 5 9 1012.7 - 0.2 - - - - - - -
27/10:00pm 12.2 NW 5 10 1013.3 - 0.2 - - - - - - -
27/09:30pm 11.9 NNW 4 8 1013.4 - 0.2 - - - - - - -
27/09:00pm 11.5 N 6 8 1013.7 - 0.2 - - - - - - -
27/08:30pm 10.9 NNW 6 10 1013.7 - 0.2 - - - - - - -
27/08:00pm 10.8 NNW 4 7 1013.8 - 0.2 - - - - - - -
27/07:30pm 11.2 NNW 5 9 1014.0 - 0.2 - - - - - - -
27/07:00pm 11.1 NNW 4 7 1014.4 - 0.2 - - - - - - -
27/06:30pm 10.7 N 4 7 1014.4 - 0.2 - - - - - - -
27/06:00pm 11.7 NW 5 10 1014.8 - 0.2 - - - - - - -
27/05:30pm 12.2 NW 7 13 1014.6 - 0.2 - - - - - - -
27/05:00pm 11.7 NW 5 7 1014.8 - 0.2 - - - - - - -
27/04:30pm 12.3 WNW 4 8 1014.5 - 0.2 - - - - - - -
27/04:00pm 12.7 NW 8 13 1014.4 - 0.2 - - - - - - -
27/03:30pm 13.1 WNW 7 14 1014.7 - 0.2 - - - - - - -
27/03:00pm 13.5 WNW 5 9 1015.3 - 0.2 - - - - - - -
27/02:30pm 13.9 WNW 9 16 1015.4 - 0.2 - - - - - - -
27/02:00pm 14.6 WNW 7 13 1015.5 - 0.2 - - - - - - -
27/01:30pm 14.3 NW 12 21 1015.6 - 0.2 - - - - - - -
27/01:00pm 14.9 NW 7 13 1015.8 - 0.2 - - - - - - -
27/12:30pm 15.4 NW 2 4 1016.5 - 0.2 - - - - - - -
27/12:00pm 14.4 W 3 5 1017.4 - 0.2 - - - - - - -
27/11:30am 14.4 W 2 4 1017.9 - 0.2 - - - - - - -
27/11:00am 13.5 SSW 1 3 1018.9 - 0.2 - - - - - - -
27/10:30am 13.1 NE 2 4 1019.2 - 0.2 - - - - - - -
27/10:00am 11.0 NW 1 2 1019.6 - 0.0 - - - - - - -
27/09:30am 10.3 NNE 2 4 1019.6 - 0.0 - - - - - - -
27/09:00am 8.9 N 3 4 1019.7 - 0.2 - - - - - - -
27/08:30am 7.6 NNW 2 3 1019.5 - 0.2 - - - - - - -
27/08:00am 7.2 NNE 3 4 1019.6 - 0.2 - - - - - - -
27/07:30am 6.9 WNW 1 2 1019.5 - 0.2 - - - - - - -
27/07:00am 6.8 W 4 4 1019.6 - 0.2 - - - - - - -
27/06:30am 6.8 WNW 6 6 1019.5 - 0.2 - - - - - - -
27/06:00am 6.9 W 6 7 1019.5 - 0.2 - - - - - - -
27/05:30am 6.7 WNW 5 6 1019.6 - 0.2 - - - - - - -
27/05:00am 6.7 W 5 6 1019.7 - 0.2 - - - - - - -

Other Formats:

Comma delimited format used in spreadsheet applications
http://www.bom.gov.au/fwo/IDT60701/IDT60701.94987.axf

JavaScript Object Notation format (JSON) in row-major order
http://www.bom.gov.au/fwo/IDT60701/IDT60701.94987.json